sensor_id;sensor_type;location;lat;lon;timestamp;temperature;humidity
18998;DHT22;9632;51.018;4.284;2023-02-01T00:02:17;8.20;99.90
18998;DHT22;9632;51.018;4.284;2023-02-01T00:04:42;8.20;99.90
18998;DHT22;9632;51.018;4.284;2023-02-01T00:07:08;8.20;99.90
18998;DHT22;9632;51.018;4.284;2023-02-01T00:09:34;8.20;99.90
18998;DHT22;9632;51.018;4.284;2023-02-01T00:11:59;8.20;99.90
18998;DHT22;9632;51.018;4.284;2023-02-01T00:14:27;8.20;99.90
18998;DHT22;9632;51.018;4.284;2023-02-01T00:16:53;8.30;99.90
18998;DHT22;9632;51.018;4.284;2023-02-01T00:19:19;8.30;99.90
18998;DHT22;9632;51.018;4.284;2023-02-01T00:21:44;8.30;99.90
18998;DHT22;9632;51.018;4.284;2023-02-01T00:24:11;8.40;99.90
18998;DHT22;9632;51.018;4.284;2023-02-01T00:26:44;8.40;99.90
18998;DHT22;9632;51.018;4.284;2023-02-01T00:29:16;8.40;99.90
18998;DHT22;9632;51.018;4.284;2023-02-01T00:31:43;8.30;99.90
18998;DHT22;9632;51.018;4.284;2023-02-01T00:34:15;8.40;99.90
18998;DHT22;9632;51.018;4.284;2023-02-01T00:36:42;8.30;99.90
18998;DHT22;9632;51.018;4.284;2023-02-01T00:39:08;8.30;99.90
18998;DHT22;9632;51.018;4.284;2023-02-01T00:41:34;8.40;99.90
18998;DHT22;9632;51.018;4.284;2023-02-01T00:43:59;8.30;99.90
18998;DHT22;9632;51.018;4.284;2023-02-01T00:46:26;8.30;99.90
18998;DHT22;9632;51.018;4.284;2023-02-01T00:48:52;8.30;99.90
18998;DHT22;9632;51.018;4.284;2023-02-01T00:51:21;8.30;99.90
18998;DHT22;9632;51.018;4.284;2023-02-01T00:53:47;8.30;99.90
18998;DHT22;9632;51.018;4.284;2023-02-01T00:56:13;8.30;99.90
18998;DHT22;9632;51.018;4.284;2023-02-01T00:58:39;8.20;99.90
18998;DHT22;9632;51.018;4.284;2023-02-01T01:01:10;8.20;99.90
18998;DHT22;9632;51.018;4.284;2023-02-01T01:03:39;8.20;99.90
18998;DHT22;9632;51.018;4.284;2023-02-01T01:06:08;8.30;99.90
18998;DHT22;9632;51.018;4.284;2023-02-01T01:08:34;8.20;99.90
18998;DHT22;9632;51.018;4.284;2023-02-01T01:11:16;8.20;99.90
18998;DHT22;9632;51.018;4.284;2023-02-01T01:13:42;8.20;99.90
18998;DHT22;9632;51.018;4.284;2023-02-01T01:16:10;8.20;99.90
18998;DHT22;9632;51.018;4.284;2023-02-01T01:18:36;8.20;99.90
18998;DHT22;9632;51.018;4.284;2023-02-01T01:21:04;8.20;99.90
18998;DHT22;9632;51.018;4.284;2023-02-01T01:23:29;8.20;99.90
18998;DHT22;9632;51.018;4.284;2023-02-01T01:25:55;8.10;99.90
18998;DHT22;9632;51.018;4.284;2023-02-01T01:28:21;8.20;99.90
18998;DHT22;9632;51.018;4.284;2023-02-01T01:30:47;8.20;99.90
18998;DHT22;9632;51.018;4.284;2023-02-01T01:33:13;8.20;99.90
18998;DHT22;9632;51.018;4.284;2023-02-01T01:35:38;8.20;99.90
18998;DHT22;9632;51.018;4.284;2023-02-01T01:38:04;8.20;99.90
18998;DHT22;9632;51.018;4.284;2023-02-01T01:40:30;8.20;99.90
18998;DHT22;9632;51.018;4.284;2023-02-01T01:42:57;8.10;99.90
18998;DHT22;9632;51.018;4.284;2023-02-01T01:45:31;8.00;99.90
18998;DHT22;9632;51.018;4.284;2023-02-01T01:48:15;8.00;99.90
18998;DHT22;9632;51.018;4.284;2023-02-01T01:50:48;8.00;99.90
18998;DHT22;9632;51.018;4.284;2023-02-01T01:53:20;7.90;99.90
18998;DHT22;9632;51.018;4.284;2023-02-01T01:55:48;7.90;99.90
18998;DHT22;9632;51.018;4.284;2023-02-01T01:58:18;7.90;99.90
18998;DHT22;9632;51.018;4.284;2023-02-01T02:00:45;7.90;99.90
18998;DHT22;9632;51.018;4.284;2023-02-01T02:05:43;7.80;99.90
18998;DHT22;9632;51.018;4.284;2023-02-01T02:08:09;7.80;99.90
18998;DHT22;9632;51.018;4.284;2023-02-01T02:10:36;7.80;99.90
18998;DHT22;9632;51.018;4.284;2023-02-01T02:13:20;7.70;99.90
18998;DHT22;9632;51.018;4.284;2023-02-01T02:26:45;7.60;99.90
18998;DHT22;9632;51.018;4.284;2023-02-01T02:40:41;7.40;99.90
18998;DHT22;9632;51.018;4.284;2023-02-01T02:43:22;7.40;99.90
18998;DHT22;9632;51.018;4.284;2023-02-01T02:49:39;7.30;99.90
18998;DHT22;9632;51.018;4.284;2023-02-01T02:52:13;7.30;99.90
18998;DHT22;9632;51.018;4.284;2023-02-01T02:54:59;7.30;99.90
18998;DHT22;9632;51.018;4.284;2023-02-01T02:57:31;7.30;99.90
18998;DHT22;9632;51.018;4.284;2023-02-01T03:00:18;7.30;99.90
18998;DHT22;9632;51.018;4.284;2023-02-01T03:03:04;7.30;99.90
18998;DHT22;9632;51.018;4.284;2023-02-01T03:05:49;7.30;99.90
18998;DHT22;9632;51.018;4.284;2023-02-01T03:08:29;7.20;99.90
18998;DHT22;9632;51.018;4.284;2023-02-01T03:11:10;7.30;99.90
18998;DHT22;9632;51.018;4.284;2023-02-01T03:13:50;7.30;99.90
18998;DHT22;9632;51.018;4.284;2023-02-01T03:16:34;7.20;99.90
18998;DHT22;9632;51.018;4.284;2023-02-01T03:21:43;7.20;99.90
18998;DHT22;9632;51.018;4.284;2023-02-01T03:24:20;7.20;99.90
18998;DHT22;9632;51.018;4.284;2023-02-01T03:26:55;7.20;99.90
18998;DHT22;9632;51.018;4.284;2023-02-01T03:29:45;7.20;99.90
18998;DHT22;9632;51.018;4.284;2023-02-01T03:32:13;7.30;99.90
18998;DHT22;9632;51.018;4.284;2023-02-01T03:34:39;7.30;99.90
18998;DHT22;9632;51.018;4.284;2023-02-01T03:37:09;7.20;99.90
18998;DHT22;9632;51.018;4.284;2023-02-01T03:39:50;7.20;99.90
18998;DHT22;9632;51.018;4.284;2023-02-01T03:42:21;7.20;99.90
18998;DHT22;9632;51.018;4.284;2023-02-01T03:45:13;7.30;99.90
18998;DHT22;9632;51.018;4.284;2023-02-01T03:47:44;7.30;99.90
18998;DHT22;9632;51.018;4.284;2023-02-01T03:50:15;7.20;99.90
18998;DHT22;9632;51.018;4.284;2023-02-01T03:52:48;7.20;99.90
18998;DHT22;9632;51.018;4.284;2023-02-01T03:55:18;7.20;99.90
18998;DHT22;9632;51.018;4.284;2023-02-01T03:57:55;7.20;99.90
18998;DHT22;9632;51.018;4.284;2023-02-01T04:00:24;7.20;99.90
18998;DHT22;9632;51.018;4.284;2023-02-01T04:02:51;7.20;99.90
18998;DHT22;9632;51.018;4.284;2023-02-01T04:05:17;7.20;99.90
18998;DHT22;9632;51.018;4.284;2023-02-01T04:07:42;7.10;99.90
18998;DHT22;9632;51.018;4.284;2023-02-01T04:10:09;7.20;99.90
18998;DHT22;9632;51.018;4.284;2023-02-01T04:12:35;7.20;99.90
18998;DHT22;9632;51.018;4.284;2023-02-01T04:15:01;7.20;99.90
18998;DHT22;9632;51.018;4.284;2023-02-01T04:17:27;7.10;99.90
18998;DHT22;9632;51.018;4.284;2023-02-01T04:19:52;7.10;99.90
18998;DHT22;9632;51.018;4.284;2023-02-01T04:22:18;7.10;99.90
18998;DHT22;9632;51.018;4.284;2023-02-01T04:24:43;7.10;99.90
18998;DHT22;9632;51.018;4.284;2023-02-01T04:27:09;7.10;99.90
18998;DHT22;9632;51.018;4.284;2023-02-01T04:29:35;7.10;99.90
18998;DHT22;9632;51.018;4.284;2023-02-01T04:32:00;7.10;99.90
18998;DHT22;9632;51.018;4.284;2023-02-01T04:34:26;7.10;99.90
18998;DHT22;9632;51.018;4.284;2023-02-01T04:36:52;7.10;99.90
18998;DHT22;9632;51.018;4.284;2023-02-01T04:39:17;7.00;99.90
18998;DHT22;9632;51.018;4.284;2023-02-01T04:41:43;7.00;99.90
18998;DHT22;9632;51.018;4.284;2023-02-01T04:44:19;7.00;99.90
18998;DHT22;9632;51.018;4.284;2023-02-01T04:46:45;7.00;99.90
18998;DHT22;9632;51.018;4.284;2023-02-01T04:49:15;7.00;99.90
18998;DHT22;9632;51.018;4.284;2023-02-01T04:51:41;7.00;99.90
18998;DHT22;9632;51.018;4.284;2023-02-01T04:54:07;7.00;99.90
18998;DHT22;9632;51.018;4.284;2023-02-01T04:56:33;7.00;99.90
18998;DHT22;9632;51.018;4.284;2023-02-01T04:59:00;6.90;99.90
18998;DHT22;9632;51.018;4.284;2023-02-01T05:01:28;6.90;99.90
18998;DHT22;9632;51.018;4.284;2023-02-01T05:03:54;7.00;99.90
18998;DHT22;9632;51.018;4.284;2023-02-01T05:06:20;6.90;99.90
18998;DHT22;9632;51.018;4.284;2023-02-01T05:08:46;6.90;99.90
18998;DHT22;9632;51.018;4.284;2023-02-01T05:11:11;6.90;99.90
18998;DHT22;9632;51.018;4.284;2023-02-01T05:13:58;6.80;99.90
18998;DHT22;9632;51.018;4.284;2023-02-01T05:16:24;6.80;99.90
18998;DHT22;9632;51.018;4.284;2023-02-01T05:18:50;6.80;99.90
18998;DHT22;9632;51.018;4.284;2023-02-01T05:21:15;6.80;99.90
18998;DHT22;9632;51.018;4.284;2023-02-01T05:23:41;6.80;99.90
18998;DHT22;9632;51.018;4.284;2023-02-01T05:26:25;6.80;99.90
18998;DHT22;9632;51.018;4.284;2023-02-01T05:28:51;6.80;99.90
18998;DHT22;9632;51.018;4.284;2023-02-01T05:31:16;6.80;99.90
18998;DHT22;9632;51.018;4.284;2023-02-01T05:33:42;6.80;99.90
18998;DHT22;9632;51.018;4.284;2023-02-01T05:36:08;6.70;99.90
18998;DHT22;9632;51.018;4.284;2023-02-01T05:38:33;6.80;99.90
18998;DHT22;9632;51.018;4.284;2023-02-01T05:40:59;6.80;99.90
18998;DHT22;9632;51.018;4.284;2023-02-01T05:43:25;6.80;99.90
18998;DHT22;9632;51.018;4.284;2023-02-01T05:45:53;6.80;99.90
18998;DHT22;9632;51.018;4.284;2023-02-01T05:48:19;6.80;99.90
18998;DHT22;9632;51.018;4.284;2023-02-01T05:50:44;6.70;99.90
18998;DHT22;9632;51.018;4.284;2023-02-01T05:53:10;6.70;99.90
18998;DHT22;9632;51.018;4.284;2023-02-01T05:55:36;6.70;99.90
18998;DHT22;9632;51.018;4.284;2023-02-01T05:58:02;6.70;99.90
18998;DHT22;9632;51.018;4.284;2023-02-01T06:00:28;6.70;99.90
18998;DHT22;9632;51.018;4.284;2023-02-01T06:02:53;6.70;99.90
18998;DHT22;9632;51.018;4.284;2023-02-01T06:05:19;6.70;99.90
18998;DHT22;9632;51.018;4.284;2023-02-01T06:07:45;6.70;99.90
18998;DHT22;9632;51.018;4.284;2023-02-01T06:10:10;6.70;99.90
18998;DHT22;9632;51.018;4.284;2023-02-01T06:12:36;6.70;99.90
18998;DHT22;9632;51.018;4.284;2023-02-01T06:15:02;6.60;99.90
18998;DHT22;9632;51.018;4.284;2023-02-01T06:17:28;6.70;99.90
18998;DHT22;9632;51.018;4.284;2023-02-01T06:19:54;6.60;99.90
18998;DHT22;9632;51.018;4.284;2023-02-01T06:22:19;6.60;99.90
18998;DHT22;9632;51.018;4.284;2023-02-01T06:24:47;6.60;99.90
18998;DHT22;9632;51.018;4.284;2023-02-01T06:27:13;6.60;99.90
18998;DHT22;9632;51.018;4.284;2023-02-01T06:29:38;6.60;99.90
18998;DHT22;9632;51.018;4.284;2023-02-01T06:32:04;6.50;99.90
18998;DHT22;9632;51.018;4.284;2023-02-01T06:34:30;6.50;99.90
18998;DHT22;9632;51.018;4.284;2023-02-01T06:36:55;6.50;99.90
18998;DHT22;9632;51.018;4.284;2023-02-01T06:39:21;6.60;99.90
18998;DHT22;9632;51.018;4.284;2023-02-01T06:41:48;6.60;99.90
18998;DHT22;9632;51.018;4.284;2023-02-01T06:44:15;6.60;99.90
18998;DHT22;9632;51.018;4.284;2023-02-01T06:46:40;6.60;99.90
18998;DHT22;9632;51.018;4.284;2023-02-01T06:49:06;6.60;99.90
18998;DHT22;9632;51.018;4.284;2023-02-01T06:51:32;6.60;99.90
18998;DHT22;9632;51.018;4.284;2023-02-01T06:53:57;6.70;99.90
18998;DHT22;9632;51.018;4.284;2023-02-01T06:56:23;6.60;99.90
18998;DHT22;9632;51.018;4.284;2023-02-01T06:58:49;6.60;99.90
18998;DHT22;9632;51.018;4.284;2023-02-01T07:01:16;6.60;99.90
18998;DHT22;9632;51.018;4.284;2023-02-01T07:03:42;6.60;99.90
18998;DHT22;9632;51.018;4.284;2023-02-01T07:06:08;6.60;99.90
18998;DHT22;9632;51.018;4.284;2023-02-01T07:08:36;6.60;99.90
18998;DHT22;9632;51.018;4.284;2023-02-01T07:11:04;6.60;99.90
18998;DHT22;9632;51.018;4.284;2023-02-01T07:13:30;6.50;99.90
18998;DHT22;9632;51.018;4.284;2023-02-01T07:16:01;6.60;99.90
18998;DHT22;9632;51.018;4.284;2023-02-01T07:18:28;6.60;99.90
18998;DHT22;9632;51.018;4.284;2023-02-01T07:20:55;6.60;99.90
18998;DHT22;9632;51.018;4.284;2023-02-01T07:23:20;6.50;99.90
18998;DHT22;9632;51.018;4.284;2023-02-01T07:25:47;6.60;99.90
18998;DHT22;9632;51.018;4.284;2023-02-01T07:28:12;6.60;99.90
18998;DHT22;9632;51.018;4.284;2023-02-01T07:30:38;6.60;99.90
18998;DHT22;9632;51.018;4.284;2023-02-01T07:33:04;6.60;99.90
18998;DHT22;9632;51.018;4.284;2023-02-01T07:35:30;6.60;99.90
18998;DHT22;9632;51.018;4.284;2023-02-01T07:37:57;6.60;99.90
18998;DHT22;9632;51.018;4.284;2023-02-01T07:40:23;6.60;99.90
18998;DHT22;9632;51.018;4.284;2023-02-01T07:42:54;6.60;99.90
18998;DHT22;9632;51.018;4.284;2023-02-01T07:45:21;6.60;99.90
18998;DHT22;9632;51.018;4.284;2023-02-01T07:47:47;6.60;99.90
18998;DHT22;9632;51.018;4.284;2023-02-01T07:50:13;6.60;99.90
18998;DHT22;9632;51.018;4.284;2023-02-01T07:52:39;6.60;99.90
18998;DHT22;9632;51.018;4.284;2023-02-01T07:55:06;6.60;99.90
18998;DHT22;9632;51.018;4.284;2023-02-01T07:57:32;6.70;99.90
18998;DHT22;9632;51.018;4.284;2023-02-01T07:59:58;6.70;99.90
18998;DHT22;9632;51.018;4.284;2023-02-01T08:02:42;6.70;99.90
18998;DHT22;9632;51.018;4.284;2023-02-01T08:05:08;6.70;99.90
18998;DHT22;9632;51.018;4.284;2023-02-01T08:07:33;6.80;99.90
18998;DHT22;9632;51.018;4.284;2023-02-01T08:09:59;6.80;99.90
18998;DHT22;9632;51.018;4.284;2023-02-01T08:12:25;6.80;99.90
18998;DHT22;9632;51.018;4.284;2023-02-01T08:14:52;6.90;99.90
18998;DHT22;9632;51.018;4.284;2023-02-01T08:17:19;6.90;99.90
18998;DHT22;9632;51.018;4.284;2023-02-01T08:19:45;6.90;99.90
18998;DHT22;9632;51.018;4.284;2023-02-01T08:22:11;7.00;99.90
18998;DHT22;9632;51.018;4.284;2023-02-01T08:24:36;6.90;99.90
18998;DHT22;9632;51.018;4.284;2023-02-01T08:27:05;6.90;99.90
18998;DHT22;9632;51.018;4.284;2023-02-01T08:29:31;6.90;99.90
18998;DHT22;9632;51.018;4.284;2023-02-01T08:31:58;7.00;99.90
18998;DHT22;9632;51.018;4.284;2023-02-01T08:34:23;7.00;99.90
18998;DHT22;9632;51.018;4.284;2023-02-01T08:36:49;7.10;99.90
18998;DHT22;9632;51.018;4.284;2023-02-01T08:39:17;7.10;99.90
18998;DHT22;9632;51.018;4.284;2023-02-01T08:41:43;7.10;99.90
18998;DHT22;9632;51.018;4.284;2023-02-01T08:44:28;7.20;99.90
18998;DHT22;9632;51.018;4.284;2023-02-01T08:46:54;7.20;99.90
18998;DHT22;9632;51.018;4.284;2023-02-01T08:49:19;7.30;99.90
18998;DHT22;9632;51.018;4.284;2023-02-01T08:51:45;7.40;99.90
18998;DHT22;9632;51.018;4.284;2023-02-01T08:54:11;7.40;99.90
18998;DHT22;9632;51.018;4.284;2023-02-01T08:56:36;7.40;99.90
18998;DHT22;9632;51.018;4.284;2023-02-01T08:59:02;7.40;99.90
18998;DHT22;9632;51.018;4.284;2023-02-01T09:01:27;7.40;99.90
18998;DHT22;9632;51.018;4.284;2023-02-01T09:03:53;7.50;99.90
18998;DHT22;9632;51.018;4.284;2023-02-01T09:06:19;7.50;99.90
18998;DHT22;9632;51.018;4.284;2023-02-01T09:08:44;7.50;99.90
18998;DHT22;9632;51.018;4.284;2023-02-01T09:11:15;7.60;99.90
18998;DHT22;9632;51.018;4.284;2023-02-01T09:13:41;7.70;99.90
18998;DHT22;9632;51.018;4.284;2023-02-01T09:16:08;7.80;99.90
18998;DHT22;9632;51.018;4.284;2023-02-01T09:18:34;7.80;99.90
18998;DHT22;9632;51.018;4.284;2023-02-01T09:21:04;7.90;99.90
18998;DHT22;9632;51.018;4.284;2023-02-01T09:23:29;7.90;99.90
18998;DHT22;9632;51.018;4.284;2023-02-01T09:26:02;8.00;99.90
18998;DHT22;9632;51.018;4.284;2023-02-01T09:28:28;7.90;99.90
18998;DHT22;9632;51.018;4.284;2023-02-01T09:30:58;8.10;99.90
18998;DHT22;9632;51.018;4.284;2023-02-01T09:33:25;8.20;99.90
18998;DHT22;9632;51.018;4.284;2023-02-01T09:35:58;8.30;99.90
18998;DHT22;9632;51.018;4.284;2023-02-01T09:38:25;8.40;99.90
18998;DHT22;9632;51.018;4.284;2023-02-01T09:40:53;8.50;99.90
18998;DHT22;9632;51.018;4.284;2023-02-01T09:48:27;8.80;99.90
18998;DHT22;9632;51.018;4.284;2023-02-01T09:50:59;8.80;99.90
18998;DHT22;9632;51.018;4.284;2023-02-01T09:53:34;8.90;99.90
18998;DHT22;9632;51.018;4.284;2023-02-01T09:56:13;8.90;99.90
18998;DHT22;9632;51.018;4.284;2023-02-01T09:58:44;9.10;99.90
18998;DHT22;9632;51.018;4.284;2023-02-01T10:01:19;9.10;99.90
18998;DHT22;9632;51.018;4.284;2023-02-01T10:03:45;9.20;99.90
18998;DHT22;9632;51.018;4.284;2023-02-01T10:14:16;9.50;99.90
18998;DHT22;9632;51.018;4.284;2023-02-01T10:17:41;9.60;99.90
18998;DHT22;9632;51.018;4.284;2023-02-01T10:22:42;9.70;99.90
18998;DHT22;9632;51.018;4.284;2023-02-01T10:27:47;9.80;99.90
18998;DHT22;9632;51.018;4.284;2023-02-01T10:30:23;9.80;99.90
18998;DHT22;9632;51.018;4.284;2023-02-01T10:32:56;9.90;99.90
18998;DHT22;9632;51.018;4.284;2023-02-01T10:35:28;9.90;99.90
18998;DHT22;9632;51.018;4.284;2023-02-01T10:37:58;9.90;99.90
18998;DHT22;9632;51.018;4.284;2023-02-01T10:40:26;9.90;99.90
18998;DHT22;9632;51.018;4.284;2023-02-01T10:42:56;10.00;99.90
18998;DHT22;9632;51.018;4.284;2023-02-01T10:45:26;10.00;99.90
18998;DHT22;9632;51.018;4.284;2023-02-01T10:47:55;9.90;99.90
18998;DHT22;9632;51.018;4.284;2023-02-01T10:53:24;10.00;99.90
18998;DHT22;9632;51.018;4.284;2023-02-01T10:55:54;10.10;99.90
18998;DHT22;9632;51.018;4.284;2023-02-01T10:58:29;10.00;99.90
18998;DHT22;9632;51.018;4.284;2023-02-01T11:01:00;10.20;99.90
18998;DHT22;9632;51.018;4.284;2023-02-01T11:06:10;10.20;99.90
18998;DHT22;9632;51.018;4.284;2023-02-01T11:08:51;10.30;99.90
18998;DHT22;9632;51.018;4.284;2023-02-01T11:11:18;10.40;99.90
18998;DHT22;9632;51.018;4.284;2023-02-01T11:13:44;10.40;99.90
18998;DHT22;9632;51.018;4.284;2023-02-01T11:16:16;10.30;99.90
18998;DHT22;9632;51.018;4.284;2023-02-01T11:18:43;10.30;99.90
18998;DHT22;9632;51.018;4.284;2023-02-01T11:21:10;10.20;99.90
18998;DHT22;9632;51.018;4.284;2023-02-01T11:23:44;10.20;99.90
18998;DHT22;9632;51.018;4.284;2023-02-01T11:26:21;10.20;99.90
18998;DHT22;9632;51.018;4.284;2023-02-01T11:28:58;10.30;99.90
18998;DHT22;9632;51.018;4.284;2023-02-01T11:31:26;10.20;99.90
18998;DHT22;9632;51.018;4.284;2023-02-01T11:33:58;10.20;99.90
18998;DHT22;9632;51.018;4.284;2023-02-01T11:36:28;10.30;99.90
18998;DHT22;9632;51.018;4.284;2023-02-01T11:44:35;10.50;99.90
18998;DHT22;9632;51.018;4.284;2023-02-01T11:49:42;10.60;99.90
18998;DHT22;9632;51.018;4.284;2023-02-01T12:00:44;10.90;99.90
18998;DHT22;9632;51.018;4.284;2023-02-01T12:03:33;10.90;99.90
18998;DHT22;9632;51.018;4.284;2023-02-01T12:06:08;10.90;99.90
18998;DHT22;9632;51.018;4.284;2023-02-01T12:14:32;10.80;99.90
18998;DHT22;9632;51.018;4.284;2023-02-01T12:25:05;11.00;99.90
18998;DHT22;9632;51.018;4.284;2023-02-01T12:28:11;11.10;99.90
18998;DHT22;9632;51.018;4.284;2023-02-01T12:39:10;11.10;99.90
18998;DHT22;9632;51.018;4.284;2023-02-01T12:44:27;11.10;99.90
18998;DHT22;9632;51.018;4.284;2023-02-01T12:49:44;11.30;99.90
18998;DHT22;9632;51.018;4.284;2023-02-01T12:52:42;11.40;99.90
18998;DHT22;9632;51.018;4.284;2023-02-01T12:55:39;11.50;99.90
18998;DHT22;9632;51.018;4.284;2023-02-01T13:03:36;11.80;99.90
18998;DHT22;9632;51.018;4.284;2023-02-01T13:06:15;11.90;99.90
18998;DHT22;9632;51.018;4.284;2023-02-01T13:11:35;12.00;99.90
18998;DHT22;9632;51.018;4.284;2023-02-01T13:14:14;12.10;99.90
18998;DHT22;9632;51.018;4.284;2023-02-01T13:16:44;12.00;99.90
18998;DHT22;9632;51.018;4.284;2023-02-01T13:22:03;11.90;99.90
18998;DHT22;9632;51.018;4.284;2023-02-01T13:24:42;11.80;99.90
18998;DHT22;9632;51.018;4.284;2023-02-01T13:27:14;11.90;99.90
18998;DHT22;9632;51.018;4.284;2023-02-01T13:29:51;12.00;99.90
18998;DHT22;9632;51.018;4.284;2023-02-01T13:43:23;12.00;99.90
18998;DHT22;9632;51.018;4.284;2023-02-01T13:45:53;11.90;99.90
18998;DHT22;9632;51.018;4.284;2023-02-01T13:48:29;11.90;99.90
18998;DHT22;9632;51.018;4.284;2023-02-01T13:50:59;11.90;99.90
18998;DHT22;9632;51.018;4.284;2023-02-01T13:53:35;11.90;99.90
18998;DHT22;9632;51.018;4.284;2023-02-01T13:56:23;11.90;99.90
18998;DHT22;9632;51.018;4.284;2023-02-01T13:58:50;11.90;99.90
18998;DHT22;9632;51.018;4.284;2023-02-01T14:03:58;11.80;99.90
18998;DHT22;9632;51.018;4.284;2023-02-01T14:09:16;11.90;99.90
18998;DHT22;9632;51.018;4.284;2023-02-01T14:11:49;11.90;99.90
18998;DHT22;9632;51.018;4.284;2023-02-01T14:19:32;11.70;99.90
18998;DHT22;9632;51.018;4.284;2023-02-01T14:24:54;11.70;99.90
18998;DHT22;9632;51.018;4.284;2023-02-01T14:27:29;11.50;99.90
18998;DHT22;9632;51.018;4.284;2023-02-01T14:30:06;11.50;99.90
18998;DHT22;9632;51.018;4.284;2023-02-01T14:32:39;11.40;99.90
18998;DHT22;9632;51.018;4.284;2023-02-01T14:35:25;11.30;99.90
18998;DHT22;9632;51.018;4.284;2023-02-01T14:37:53;11.30;99.90
18998;DHT22;9632;51.018;4.284;2023-02-01T14:40:27;11.30;99.90
18998;DHT22;9632;51.018;4.284;2023-02-01T14:42:54;11.30;99.90
18998;DHT22;9632;51.018;4.284;2023-02-01T14:47:50;11.30;99.90
18998;DHT22;9632;51.018;4.284;2023-02-01T14:55:47;11.30;99.90
18998;DHT22;9632;51.018;4.284;2023-02-01T15:09:33;11.10;99.90
18998;DHT22;9632;51.018;4.284;2023-02-01T15:14:32;11.00;99.90
18998;DHT22;9632;51.018;4.284;2023-02-01T15:16:58;11.10;99.90
18998;DHT22;9632;51.018;4.284;2023-02-01T15:19:25;11.10;99.90
18998;DHT22;9632;51.018;4.284;2023-02-01T15:21:54;11.10;99.90
18998;DHT22;9632;51.018;4.284;2023-02-01T15:26:47;11.00;99.90
18998;DHT22;9632;51.018;4.284;2023-02-01T15:29:14;10.90;99.90
18998;DHT22;9632;51.018;4.284;2023-02-01T15:31:43;10.90;99.90
18998;DHT22;9632;51.018;4.284;2023-02-01T15:34:10;11.00;99.90
18998;DHT22;9632;51.018;4.284;2023-02-01T15:36:36;10.90;99.90
18998;DHT22;9632;51.018;4.284;2023-02-01T15:42:00;10.90;99.90
18998;DHT22;9632;51.018;4.284;2023-02-01T15:47:17;10.80;99.90
18998;DHT22;9632;51.018;4.284;2023-02-01T15:49:46;10.80;99.90
18998;DHT22;9632;51.018;4.284;2023-02-01T15:54:48;10.80;99.90
18998;DHT22;9632;51.018;4.284;2023-02-01T15:57:35;10.90;99.90
18998;DHT22;9632;51.018;4.284;2023-02-01T16:00:08;10.80;99.90
18998;DHT22;9632;51.018;4.284;2023-02-01T16:02:52;10.80;99.90
18998;DHT22;9632;51.018;4.284;2023-02-01T16:08:14;10.80;99.90
18998;DHT22;9632;51.018;4.284;2023-02-01T16:10:45;10.70;99.90
18998;DHT22;9632;51.018;4.284;2023-02-01T16:13:12;10.70;99.90
18998;DHT22;9632;51.018;4.284;2023-02-01T16:15:38;10.70;99.90
18998;DHT22;9632;51.018;4.284;2023-02-01T16:18:05;10.70;99.90
18998;DHT22;9632;51.018;4.284;2023-02-01T16:20:32;10.70;99.90
18998;DHT22;9632;51.018;4.284;2023-02-01T16:22:58;10.70;99.90
18998;DHT22;9632;51.018;4.284;2023-02-01T16:25:24;10.80;99.90
18998;DHT22;9632;51.018;4.284;2023-02-01T16:27:49;10.80;99.90
18998;DHT22;9632;51.018;4.284;2023-02-01T16:30:16;10.80;99.90
18998;DHT22;9632;51.018;4.284;2023-02-01T16:32:44;10.80;99.90
18998;DHT22;9632;51.018;4.284;2023-02-01T16:35:21;10.70;99.90
18998;DHT22;9632;51.018;4.284;2023-02-01T16:37:48;10.80;99.90
18998;DHT22;9632;51.018;4.284;2023-02-01T16:40:15;10.80;99.90
18998;DHT22;9632;51.018;4.284;2023-02-01T16:42:40;10.80;99.90
18998;DHT22;9632;51.018;4.284;2023-02-01T16:45:07;10.80;99.90
18998;DHT22;9632;51.018;4.284;2023-02-01T16:47:36;10.70;99.90
18998;DHT22;9632;51.018;4.284;2023-02-01T16:50:02;10.70;99.90
18998;DHT22;9632;51.018;4.284;2023-02-01T16:52:28;10.80;99.90
18998;DHT22;9632;51.018;4.284;2023-02-01T16:54:54;10.70;99.90
18998;DHT22;9632;51.018;4.284;2023-02-01T16:57:20;10.70;99.90
18998;DHT22;9632;51.018;4.284;2023-02-01T16:59:49;10.70;99.90
18998;DHT22;9632;51.018;4.284;2023-02-01T17:02:19;10.70;99.90
18998;DHT22;9632;51.018;4.284;2023-02-01T17:04:45;10.70;99.90
18998;DHT22;9632;51.018;4.284;2023-02-01T17:07:13;10.60;99.90
18998;DHT22;9632;51.018;4.284;2023-02-01T17:09:39;10.50;99.90
18998;DHT22;9632;51.018;4.284;2023-02-01T17:12:05;10.50;99.90
18998;DHT22;9632;51.018;4.284;2023-02-01T17:14:34;10.60;99.90
18998;DHT22;9632;51.018;4.284;2023-02-01T17:17:01;10.50;99.90
18998;DHT22;9632;51.018;4.284;2023-02-01T17:19:27;10.50;99.90
18998;DHT22;9632;51.018;4.284;2023-02-01T17:21:55;10.50;99.90
18998;DHT22;9632;51.018;4.284;2023-02-01T17:24:26;10.50;99.90
18998;DHT22;9632;51.018;4.284;2023-02-01T17:26:52;10.60;99.90
18998;DHT22;9632;51.018;4.284;2023-02-01T17:29:18;10.60;99.90
18998;DHT22;9632;51.018;4.284;2023-02-01T17:31:50;10.50;99.90
18998;DHT22;9632;51.018;4.284;2023-02-01T17:34:17;10.50;99.90
18998;DHT22;9632;51.018;4.284;2023-02-01T17:36:45;10.50;99.90
18998;DHT22;9632;51.018;4.284;2023-02-01T17:39:12;10.50;99.90
18998;DHT22;9632;51.018;4.284;2023-02-01T17:42:02;10.50;99.90
18998;DHT22;9632;51.018;4.284;2023-02-01T17:44:28;10.50;99.90
18998;DHT22;9632;51.018;4.284;2023-02-01T17:46:53;10.50;99.90
18998;DHT22;9632;51.018;4.284;2023-02-01T17:49:22;10.50;99.90
18998;DHT22;9632;51.018;4.284;2023-02-01T17:51:47;10.50;99.90
18998;DHT22;9632;51.018;4.284;2023-02-01T17:54:15;10.50;99.90
18998;DHT22;9632;51.018;4.284;2023-02-01T17:56:42;10.50;99.90
18998;DHT22;9632;51.018;4.284;2023-02-01T17:59:08;10.50;99.90
18998;DHT22;9632;51.018;4.284;2023-02-01T18:01:34;10.40;99.90
18998;DHT22;9632;51.018;4.284;2023-02-01T18:04:00;10.40;99.90
18998;DHT22;9632;51.018;4.284;2023-02-01T18:06:26;10.40;99.90
18998;DHT22;9632;51.018;4.284;2023-02-01T18:08:52;10.40;99.90
18998;DHT22;9632;51.018;4.284;2023-02-01T18:11:20;10.40;99.90
18998;DHT22;9632;51.018;4.284;2023-02-01T18:13:47;10.50;99.90
18998;DHT22;9632;51.018;4.284;2023-02-01T18:16:28;10.50;99.90
18998;DHT22;9632;51.018;4.284;2023-02-01T18:18:54;10.50;99.90
18998;DHT22;9632;51.018;4.284;2023-02-01T18:21:30;10.50;99.90
18998;DHT22;9632;51.018;4.284;2023-02-01T18:23:57;10.50;99.90
18998;DHT22;9632;51.018;4.284;2023-02-01T18:26:22;10.50;99.90
18998;DHT22;9632;51.018;4.284;2023-02-01T18:28:48;10.40;99.90
18998;DHT22;9632;51.018;4.284;2023-02-01T18:31:29;10.40;99.90
18998;DHT22;9632;51.018;4.284;2023-02-01T18:33:57;10.40;99.90
18998;DHT22;9632;51.018;4.284;2023-02-01T18:36:23;10.50;99.90
18998;DHT22;9632;51.018;4.284;2023-02-01T18:38:49;10.40;99.90
18998;DHT22;9632;51.018;4.284;2023-02-01T18:41:19;10.40;99.90
18998;DHT22;9632;51.018;4.284;2023-02-01T18:43:46;10.50;99.90
18998;DHT22;9632;51.018;4.284;2023-02-01T18:46:12;10.40;99.90
18998;DHT22;9632;51.018;4.284;2023-02-01T18:48:39;10.50;99.90
18998;DHT22;9632;51.018;4.284;2023-02-01T18:51:05;10.50;99.90
18998;DHT22;9632;51.018;4.284;2023-02-01T18:53:31;10.50;99.90
18998;DHT22;9632;51.018;4.284;2023-02-01T18:55:58;10.50;99.90
18998;DHT22;9632;51.018;4.284;2023-02-01T18:58:25;10.40;99.90
18998;DHT22;9632;51.018;4.284;2023-02-01T19:00:55;10.40;99.90